Time;durP1;ratioP1;P1;durP2;ratioP2;P2;SDS_P1;SDS_P2;PMS_P1;PMS_P2;Temp;Humidity;BMP_temperature;BMP_pressure;BME280_temperature;BME280_humidity;BME280_pressure;Samples;Min_cycle;Max_cycle;Signal;HPM_P1;HPM_P2
2022/07/04 00:01:11;;;;;;;3.50;1.10;;;16.00;99.90;;;;;;7347330;19;108387;-90
2022/07/04 00:03:38;;;;;;;2.05;0.93;;;16.00;99.90;;;;;;7346878;19;109268;-89
2022/07/04 00:06:06;;;;;;;5.00;1.52;;;15.90;99.90;;;;;;7348114;19;107905;-89
2022/07/04 00:08:33;;;;;;;4.75;1.30;;;15.90;99.90;;;;;;7345984;19;109922;-89
2022/07/04 00:11:00;;;;;;;4.68;1.20;;;15.90;99.90;;;;;;7347606;19;108262;-88
2022/07/04 00:13:27;;;;;;;4.63;1.30;;;15.80;99.90;;;;;;7348430;19;108953;-89
2022/07/04 00:15:54;;;;;;;3.08;1.35;;;15.80;99.90;;;;;;7345533;19;111594;-89
2022/07/04 00:18:21;;;;;;;2.13;1.20;;;15.70;99.90;;;;;;7352007;19;107209;-88
2022/07/04 00:20:48;;;;;;;2.50;1.00;;;15.60;99.90;;;;;;7346393;19;107173;-88
2022/07/04 00:23:16;;;;;;;3.25;0.70;;;15.60;99.90;;;;;;7346583;19;107435;-89
2022/07/04 00:25:43;;;;;;;2.25;1.05;;;15.70;99.90;;;;;;7345844;19;111455;-89
2022/07/04 00:28:10;;;;;;;1.30;0.85;;;15.70;99.90;;;;;;7346358;19;109111;-90
2022/07/04 00:30:37;;;;;;;1.50;0.70;;;15.70;99.90;;;;;;7347328;19;107518;-89
2022/07/04 00:33:04;;;;;;;6.13;1.20;;;15.70;99.90;;;;;;7347444;19;108197;-89
2022/07/04 00:35:31;;;;;;;2.58;0.88;;;15.70;99.90;;;;;;7346293;19;109851;-89
2022/07/04 00:37:58;;;;;;;4.80;0.70;;;15.70;99.90;;;;;;7345871;19;108050;-89
2022/07/04 00:40:25;;;;;;;1.85;0.85;;;15.70;99.90;;;;;;7353014;19;109706;-89
2022/07/04 00:42:52;;;;;;;2.15;0.85;;;15.70;99.90;;;;;;7348023;19;108810;-89
2022/07/04 00:45:20;;;;;;;3.25;0.90;;;15.70;99.90;;;;;;7344710;19;108788;-88
2022/07/04 00:47:47;;;;;;;1.63;0.88;;;15.70;99.90;;;;;;7346625;19;108974;-89
2022/07/04 00:50:14;;;;;;;2.70;0.90;;;15.60;99.90;;;;;;7346898;19;107667;-89
2022/07/04 00:52:41;;;;;;;3.80;0.90;;;15.60;99.90;;;;;;7344061;19;109977;-88
2022/07/04 00:55:10;;;;;;;3.00;0.95;;;15.60;99.90;;;;;;7345723;19;108137;-90
2022/07/04 00:57:37;;;;;;;2.58;1.27;;;15.50;99.90;;;;;;7347894;19;108588;-89
2022/07/04 01:00:04;;;;;;;3.45;0.95;;;15.50;99.90;;;;;;7347476;19;108790;-89
2022/07/04 01:02:32;;;;;;;4.30;1.10;;;15.30;99.90;;;;;;7351100;19;107709;-88
2022/07/04 01:04:59;;;;;;;1.48;0.95;;;15.30;99.90;;;;;;7342406;19;109388;-88
2022/07/04 01:07:27;;;;;;;1.80;1.00;;;15.30;99.90;;;;;;7344445;19;107021;-89
2022/07/04 01:09:54;;;;;;;1.85;1.00;;;15.30;99.90;;;;;;7346446;19;107537;-88
2022/07/04 01:12:26;;;;;;;2.17;1.25;;;15.20;99.90;;;;;;7345044;19;109135;-88
2022/07/04 01:14:53;;;;;;;2.05;1.25;;;15.20;99.90;;;;;;7344855;19;107580;-88
2022/07/04 01:17:20;;;;;;;3.60;1.30;;;15.10;99.90;;;;;;7345040;19;108214;-89
2022/07/04 01:19:47;;;;;;;3.20;1.40;;;15.10;99.90;;;;;;7344055;19;108182;-90
2022/07/04 01:22:15;;;;;;;4.03;1.10;;;15.00;99.90;;;;;;7344451;19;108517;-89
2022/07/04 01:24:42;;;;;;;1.40;1.02;;;15.00;99.90;;;;;;7349073;19;109461;-88
2022/07/04 01:27:09;;;;;;;1.50;1.15;;;15.00;99.90;;;;;;7344512;19;107745;-89
2022/07/04 01:29:36;;;;;;;2.08;1.10;;;15.00;99.90;;;;;;7344075;19;108341;-89
2022/07/04 01:32:08;;;;;;;2.67;0.88;;;15.00;99.90;;;;;;7346289;19;110365;-89
2022/07/04 01:34:35;;;;;;;2.00;0.90;;;15.00;99.90;;;;;;7344195;19;107973;-88
2022/07/04 01:37:09;;;;;;;1.15;0.98;;;15.00;99.90;;;;;;7345971;19;107481;-90
2022/07/04 01:39:36;;;;;;;1.85;0.93;;;14.90;99.90;;;;;;7346897;19;107984;-89
2022/07/04 01:42:04;;;;;;;3.30;1.10;;;14.90;99.90;;;;;;7343931;19;109255;-89
2022/07/04 01:44:32;;;;;;;2.38;1.20;;;14.80;99.90;;;;;;7346934;19;109173;-90
2022/07/04 01:46:59;;;;;;;4.05;1.00;;;14.80;99.90;;;;;;7349745;19;112114;-91
2022/07/04 01:49:27;;;;;;;1.10;0.88;;;14.70;99.90;;;;;;7348839;19;108218;-89
2022/07/04 01:51:54;;;;;;;2.42;1.02;;;14.70;99.90;;;;;;7347455;19;108998;-89
2022/07/04 01:54:26;;;;;;;1.40;1.08;;;14.80;99.90;;;;;;7348696;19;107629;-89
2022/07/04 01:56:53;;;;;;;2.05;1.20;;;14.80;99.90;;;;;;7348203;19;107527;-90
2022/07/04 02:01:29;;;;;;;2.72;1.25;;;14.80;99.90;;;;;;7349117;19;108073;-89
2022/07/04 02:02:08;;;;;;;2.97;1.33;;;14.80;99.90;;;;;;7348375;19;108088;-88
2022/07/04 02:04:35;;;;;;;2.55;1.00;;;14.80;99.90;;;;;;7346888;19;107822;-89
2022/07/04 02:07:02;;;;;;;2.85;1.10;;;14.70;99.90;;;;;;7351659;19;107449;-90
2022/07/04 02:09:30;;;;;;;1.92;0.88;;;14.70;99.90;;;;;;7348149;19;110054;-89
2022/07/04 02:14:43;;;;;;;1.70;1.00;;;14.60;99.90;;;;;;7348504;19;109247;-90
2022/07/04 02:17:11;;;;;;;2.30;1.20;;;14.60;99.90;;;;;;7350248;19;108238;-89
2022/07/04 02:19:38;;;;;;;60.15;2.88;;;14.70;99.90;;;;;;7352288;19;110992;-88
2022/07/04 02:22:05;;;;;;;6.65;1.48;;;14.60;99.90;;;;;;7350864;19;107496;-89
2022/07/04 02:24:33;;;;;;;1.20;0.90;;;14.60;99.90;;;;;;7348857;19;107470;-90
2022/07/04 02:27:00;;;;;;;5.45;1.33;;;14.60;99.90;;;;;;7359530;19;108981;-90
2022/07/04 02:29:27;;;;;;;3.63;1.15;;;14.70;99.90;;;;;;7360487;19;108397;-89
2022/07/04 02:31:55;;;;;;;2.83;1.10;;;14.70;99.90;;;;;;7351338;19;108731;-89
2022/07/04 02:34:22;;;;;;;2.33;1.20;;;14.60;99.90;;;;;;7349922;19;108097;-90
2022/07/04 02:36:49;;;;;;;2.75;1.20;;;14.60;99.90;;;;;;7349842;19;108423;-90
2022/07/04 02:39:17;;;;;;;4.40;1.10;;;14.60;99.90;;;;;;7352012;19;107674;-89
2022/07/04 02:41:44;;;;;;;2.10;1.15;;;14.60;99.90;;;;;;7353058;19;108007;-89
2022/07/04 02:44:11;;;;;;;8.15;1.20;;;14.60;99.90;;;;;;7350295;19;108262;-90
2022/07/04 02:46:38;;;;;;;1.50;1.08;;;14.60;99.90;;;;;;7343567;19;108937;-89
2022/07/04 02:49:06;;;;;;;3.83;1.00;;;14.60;99.90;;;;;;7348764;19;107965;-89
2022/07/04 02:51:33;;;;;;;3.08;1.20;;;14.60;99.90;;;;;;7353341;19;110798;-90
2022/07/04 02:54:01;;;;;;;2.97;1.10;;;14.60;99.90;;;;;;7346858;19;108044;-89
2022/07/04 02:56:28;;;;;;;2.15;1.05;;;14.60;99.90;;;;;;7347835;19;107541;-90
2022/07/04 02:58:55;;;;;;;1.88;1.20;;;14.50;99.90;;;;;;7348293;19;107092;-90
2022/07/04 03:01:22;;;;;;;5.97;1.10;;;14.50;99.90;;;;;;7348112;19;108258;-89
2022/07/04 03:03:49;;;;;;;2.33;1.10;;;14.40;99.90;;;;;;7346323;19;108556;-90
2022/07/04 03:06:17;;;;;;;1.25;0.82;;;14.50;99.90;;;;;;7344377;19;108993;-91
2022/07/04 03:08:44;;;;;;;2.63;1.10;;;14.50;99.90;;;;;;7344725;19;107408;-91
2022/07/04 03:11:12;;;;;;;6.30;1.27;;;14.50;99.90;;;;;;7343223;19;109746;-90
2022/07/04 03:13:40;;;;;;;2.40;1.20;;;14.40;99.90;;;;;;7350016;19;112950;-90
2022/07/04 03:16:07;;;;;;;1.42;1.23;;;14.40;99.90;;;;;;7352089;19;108169;-91
2022/07/04 03:18:34;;;;;;;2.40;1.00;;;14.40;99.90;;;;;;7352621;19;108813;-90
2022/07/04 03:21:04;;;;;;;1.73;1.10;;;14.40;99.90;;;;;;7353237;19;107475;-91
2022/07/04 03:23:38;;;;;;;3.00;1.23;;;14.30;99.90;;;;;;7352192;19;108321;-91
2022/07/04 03:26:05;;;;;;;5.65;1.30;;;14.30;99.90;;;;;;7350999;19;112464;-91
2022/07/04 03:28:32;;;;;;;3.72;1.33;;;14.30;99.90;;;;;;7352728;19;107127;-91
2022/07/04 03:30:59;;;;;;;2.80;1.08;;;14.30;99.90;;;;;;7347040;19;107868;-91
2022/07/04 03:33:26;;;;;;;4.65;1.38;;;14.30;99.90;;;;;;7348917;19;109895;-90
2022/07/04 03:35:53;;;;;;;6.60;1.17;;;14.30;99.90;;;;;;7359455;19;107942;-91
2022/07/04 03:38:20;;;;;;;3.70;1.58;;;14.20;99.90;;;;;;7352054;19;108594;-90
2022/07/04 03:40:47;;;;;;;4.13;1.20;;;14.30;99.90;;;;;;7351351;19;108347;-91
2022/07/04 03:43:14;;;;;;;4.95;1.40;;;14.30;99.90;;;;;;7351290;19;108140;-91
2022/07/04 03:45:42;;;;;;;4.75;1.60;;;14.30;99.90;;;;;;7345223;19;110301;-90
2022/07/04 03:48:09;;;;;;;4.07;1.45;;;14.30;99.90;;;;;;7351321;19;107630;-91
2022/07/04 03:50:36;;;;;;;4.75;1.60;;;14.30;99.90;;;;;;7351636;19;108195;-91
2022/07/04 03:53:03;;;;;;;3.10;1.70;;;14.30;99.90;;;;;;7350286;19;107189;-91
2022/07/04 03:55:30;;;;;;;4.35;1.40;;;14.30;99.90;;;;;;7349854;19;107213;-91
2022/07/04 03:57:57;;;;;;;5.28;1.70;;;14.20;99.90;;;;;;7356079;19;108352;-90
2022/07/04 04:00:24;;;;;;;5.60;1.80;;;14.20;99.90;;;;;;7349149;19;107092;-91
2022/07/04 04:02:51;;;;;;;4.85;2.05;;;14.30;99.90;;;;;;7349189;19;110181;-91
2022/07/04 04:05:30;;;;;;;5.38;1.95;;;14.30;99.90;;;;;;7351241;19;108957;-90
2022/07/04 04:07:59;;;;;;;6.40;1.77;;;14.40;99.90;;;;;;7350737;19;107878;-91
2022/07/04 04:10:27;;;;;;;6.80;2.40;;;14.40;99.90;;;;;;7348870;19;111033;-90
2022/07/04 04:12:55;;;;;;;3.92;2.22;;;14.40;99.90;;;;;;7351158;19;107958;-90
2022/07/04 04:15:22;;;;;;;5.85;2.78;;;14.40;99.90;;;;;;7351208;19;107919;-91
2022/07/04 04:17:49;;;;;;;8.45;2.60;;;14.50;99.90;;;;;;7351775;19;107141;-90
2022/07/04 04:20:16;;;;;;;7.47;2.28;;;14.50;99.90;;;;;;7346533;19;109947;-91
2022/07/04 04:22:43;;;;;;;4.80;2.33;;;14.50;99.90;;;;;;7349881;19;108418;-92
2022/07/04 04:25:10;;;;;;;3.72;2.08;;;14.50;99.90;;;;;;7350174;19;111488;-91
2022/07/04 04:27:37;;;;;;;6.25;2.80;;;14.60;99.90;;;;;;7349751;19;108297;-92
2022/07/04 04:30:05;;;;;;;5.32;2.63;;;14.60;99.90;;;;;;7349495;19;109902;-91
2022/07/04 04:32:32;;;;;;;8.48;3.00;;;14.60;99.90;;;;;;7348972;19;107776;-91
2022/07/04 04:34:59;;;;;;;6.90;2.55;;;14.60;99.90;;;;;;7349958;19;107176;-91
2022/07/04 04:37:27;;;;;;;7.30;2.92;;;14.60;99.90;;;;;;7350805;19;108173;-90
2022/07/04 04:39:54;;;;;;;7.35;3.17;;;14.60;99.90;;;;;;7355651;19;109092;-91
2022/07/04 04:42:21;;;;;;;6.35;2.88;;;14.70;99.90;;;;;;7348877;19;108607;-90
2022/07/04 04:44:48;;;;;;;7.00;2.63;;;14.70;99.90;;;;;;7346959;19;109104;-90
2022/07/04 04:47:15;;;;;;;13.10;2.83;;;14.70;99.90;;;;;;7347765;19;108364;-91
2022/07/04 04:49:43;;;;;;;7.38;2.28;;;14.80;99.90;;;;;;7349789;19;107699;-90
2022/07/04 04:52:11;;;;;;;6.15;2.55;;;14.80;99.90;;;;;;7349642;19;107704;-90
2022/07/04 04:54:38;;;;;;;10.02;2.45;;;14.80;99.90;;;;;;7349627;19;108092;-90
2022/07/04 04:57:06;;;;;;;6.97;2.97;;;14.90;99.90;;;;;;7349313;19;108835;-90
2022/07/04 04:59:34;;;;;;;5.50;2.92;;;14.90;99.90;;;;;;7347630;19;109367;-90
2022/07/04 05:02:01;;;;;;;9.40;2.92;;;15.00;99.90;;;;;;7353593;19;107999;-89
2022/07/04 05:04:28;;;;;;;9.00;2.60;;;15.00;99.90;;;;;;7346964;19;111847;-90
2022/07/04 05:06:56;;;;;;;6.28;2.80;;;15.00;99.90;;;;;;7346657;19;110344;-90
2022/07/04 05:09:23;;;;;;;3.75;2.63;;;15.10;99.90;;;;;;7350437;19;107503;-91
2022/07/04 05:11:50;;;;;;;4.38;2.65;;;15.10;99.90;;;;;;7348084;19;109545;-90
2022/07/04 05:14:19;;;;;;;6.70;3.10;;;15.20;99.90;;;;;;7350782;19;107668;-92
2022/07/04 05:16:46;;;;;;;7.00;2.67;;;15.20;99.90;;;;;;7348940;19;107415;-91
2022/07/04 05:19:13;;;;;;;8.05;3.15;;;15.30;99.90;;;;;;7348174;19;111341;-90
2022/07/04 05:21:40;;;;;;;6.28;3.08;;;15.30;99.90;;;;;;7346724;19;110213;-91
2022/07/04 05:24:07;;;;;;;12.10;3.33;;;15.40;99.90;;;;;;7353004;19;110503;-92
2022/07/04 05:26:35;;;;;;;7.88;3.05;;;15.50;99.90;;;;;;7346741;19;108262;-92
2022/07/04 05:29:02;;;;;;;5.45;2.88;;;15.60;99.90;;;;;;7349945;19;108696;-91
2022/07/04 05:31:31;;;;;;;5.22;2.70;;;15.70;99.90;;;;;;7349168;19;110496;-91
2022/07/04 05:33:58;;;;;;;8.55;2.90;;;15.80;99.90;;;;;;7350227;19;107389;-92
2022/07/04 05:36:26;;;;;;;9.10;3.58;;;15.80;99.90;;;;;;7348790;19;107958;-92
2022/07/04 05:38:58;;;;;;;9.18;3.00;;;15.90;99.90;;;;;;7347036;19;111413;-91
2022/07/04 05:41:26;;;;;;;10.38;2.80;;;16.00;99.90;;;;;;7349476;19;107632;-90
2022/07/04 05:43:54;;;;;;;4.47;2.92;;;16.10;99.90;;;;;;7348429;19;108014;-91
2022/07/04 05:46:25;;;;;;;4.10;2.63;;;16.20;99.90;;;;;;7354021;19;109238;-92
2022/07/04 05:48:52;;;;;;;4.45;2.60;;;16.30;99.90;;;;;;7346570;19;108565;-91
2022/07/04 05:51:20;;;;;;;7.65;2.92;;;16.40;99.90;;;;;;7348260;19;108984;-91
2022/07/04 05:53:48;;;;;;;4.65;2.67;;;16.50;99.90;;;;;;7347651;19;108078;-92
2022/07/04 05:56:15;;;;;;;6.43;2.70;;;16.60;99.90;;;;;;7346938;19;106991;-91
2022/07/04 05:58:42;;;;;;;5.47;2.88;;;16.70;99.90;;;;;;7346731;19;108744;-91
2022/07/04 06:01:09;;;;;;;4.93;3.03;;;16.80;99.90;;;;;;7347673;19;107185;-90
2022/07/04 06:03:36;;;;;;;9.88;3.00;;;16.90;99.90;;;;;;7348204;19;108850;-90
2022/07/04 06:06:05;;;;;;;6.00;2.78;;;17.00;99.90;;;;;;7346823;19;109202;-90
2022/07/04 06:08:32;;;;;;;6.85;2.72;;;17.10;99.90;;;;;;7353127;19;106809;-91
2022/07/04 06:10:59;;;;;;;9.70;2.97;;;17.20;99.90;;;;;;7345883;19;108387;-91
2022/07/04 06:13:27;;;;;;;8.50;2.80;;;17.30;99.90;;;;;;7347973;19;107504;-90
2022/07/04 06:15:55;;;;;;;3.30;2.13;;;17.40;99.90;;;;;;7345301;19;111403;-92
2022/07/04 06:18:22;;;;;;;4.38;1.95;;;17.50;99.90;;;;;;7346198;19;109319;-91
2022/07/04 06:20:49;;;;;;;2.97;1.70;;;17.60;99.90;;;;;;7345587;19;107828;-89
2022/07/04 06:23:16;;;;;;;8.00;1.60;;;17.80;99.90;;;;;;7345334;19;108222;-90
2022/07/04 06:25:43;;;;;;;5.47;1.80;;;17.80;99.90;;;;;;7347340;19;108533;-91
2022/07/04 06:28:10;;;;;;;3.78;1.40;;;18.00;99.90;;;;;;7349335;19;107226;-90
2022/07/04 06:30:58;;;;;;;1.90;1.17;;;18.00;99.90;;;;;;7345593;19;111148;-92
2022/07/04 06:33:25;;;;;;;3.95;1.42;;;18.10;99.90;;;;;;7348548;19;108107;-94
2022/07/04 06:35:55;;;;;;;3.08;1.10;;;18.20;99.90;;;;;;7347733;19;110569;-93
2022/07/04 06:38:27;;;;;;;13.43;1.55;;;18.40;99.90;;;;;;7349422;19;108199;-93
2022/07/04 06:40:57;;;;;;;8.55;1.60;;;18.50;99.90;;;;;;7348095;19;108360;-93
2022/07/04 06:43:25;;;;;;;5.43;1.30;;;18.50;99.90;;;;;;7348825;19;108227;-93
2022/07/04 06:45:53;;;;;;;3.47;1.33;;;18.60;99.90;;;;;;7345834;19;108972;-89
2022/07/04 06:48:21;;;;;;;5.55;1.77;;;18.70;99.90;;;;;;7343538;19;107989;-89
2022/07/04 06:50:48;;;;;;;2.85;1.20;;;18.90;99.90;;;;;;7345181;19;107988;-92
2022/07/04 06:53:15;;;;;;;4.80;1.38;;;19.00;99.90;;;;;;7343933;19;110542;-90
2022/07/04 06:55:43;;;;;;;10.00;0.95;;;19.10;99.90;;;;;;7343913;19;107064;-89
2022/07/04 06:58:12;;;;;;;5.93;1.15;;;19.30;99.90;;;;;;7342553;19;109213;-91
2022/07/04 07:00:41;;;;;;;5.25;0.70;;;19.40;99.90;;;;;;7342479;19;108005;-92
2022/07/04 07:03:08;;;;;;;2.83;0.80;;;19.50;99.90;;;;;;7343487;19;107444;-91
2022/07/04 07:05:38;;;;;;;5.97;1.10;;;19.60;99.90;;;;;;7344970;19;109290;-89
2022/07/04 07:08:26;;;;;;;6.55;1.00;;;19.70;99.90;;;;;;7343917;19;107997;-89
2022/07/04 07:10:54;;;;;;;7.05;1.20;;;19.80;99.90;;;;;;7342694;19;107772;-92
2022/07/04 07:13:21;;;;;;;3.38;0.90;;;19.90;99.90;;;;;;7349348;19;107974;-90
2022/07/04 07:15:49;;;;;;;3.92;0.80;;;20.00;99.90;;;;;;7343750;19;108448;-91
2022/07/04 07:18:16;;;;;;;4.88;1.00;;;20.10;99.90;;;;;;7343640;19;110128;-91
2022/07/04 07:20:43;;;;;;;3.55;0.90;;;20.20;99.90;;;;;;7345360;19;110444;-91
2022/07/04 07:23:10;;;;;;;4.80;0.98;;;20.20;99.90;;;;;;7344112;19;108934;-91
2022/07/04 07:25:38;;;;;;;5.95;0.88;;;20.30;99.90;;;;;;7344525;19;108733;-91
2022/07/04 07:28:05;;;;;;;5.95;1.00;;;20.40;99.90;;;;;;7340966;19;108147;-90
2022/07/04 07:30:32;;;;;;;7.47;1.30;;;20.50;99.90;;;;;;7343817;19;108769;-90
2022/07/04 07:32:59;;;;;;;5.15;1.08;;;20.60;99.90;;;;;;7342887;19;108859;-90
2022/07/04 07:35:26;;;;;;;5.50;0.90;;;20.60;99.90;;;;;;7349054;19;106922;-91
2022/07/04 07:37:53;;;;;;;4.05;0.95;;;20.60;99.90;;;;;;7341449;19;108868;-90
2022/07/04 07:40:21;;;;;;;4.32;1.00;;;20.80;99.90;;;;;;7343092;19;108436;-92
2022/07/04 07:42:48;;;;;;;6.22;1.08;;;20.80;99.90;;;;;;7344023;19;110555;-92
2022/07/04 07:45:15;;;;;;;3.88;0.95;;;20.90;99.90;;;;;;7341463;19;109155;-90
2022/07/04 07:47:42;;;;;;;3.53;1.10;;;21.00;99.90;;;;;;7342155;19;108267;-90
2022/07/04 07:50:09;;;;;;;4.10;0.95;;;21.10;99.90;;;;;;7343133;19;107123;-90
2022/07/04 07:52:37;;;;;;;7.15;1.05;;;21.20;99.90;;;;;;7344533;19;107766;-90
2022/07/04 07:55:05;;;;;;;5.00;1.00;;;21.30;99.90;;;;;;7344301;19;108262;-91
2022/07/04 07:57:32;;;;;;;3.17;0.80;;;21.30;99.90;;;;;;7348394;19;109384;-90
2022/07/04 07:59:59;;;;;;;3.60;0.95;;;21.40;99.90;;;;;;7344560;19;108945;-90
2022/07/04 08:05:12;;;;;;;4.55;1.10;;;21.50;99.90;;;;;;7349790;19;107996;-90
2022/07/04 08:07:40;;;;;;;4.32;0.95;;;21.60;99.90;;;;;;7348040;19;107967;-90
2022/07/04 08:10:08;;;;;;;13.13;1.23;;;21.60;99.90;;;;;;7349370;19;110948;-89
2022/07/04 08:12:36;;;;;;;8.88;1.25;;;21.70;99.90;;;;;;7349664;19;108916;-89
2022/07/04 08:15:03;;;;;;;4.82;0.80;;;21.90;99.90;;;;;;7350018;19;110477;-91
2022/07/04 08:17:34;;;;;;;3.38;0.80;;;21.90;99.90;;;;;;7354346;19;108492;-91
2022/07/04 08:20:05;;;;;;;2.92;0.65;;;22.00;99.90;;;;;;7349065;19;108376;-90
2022/07/04 08:22:32;;;;;;;4.15;1.00;;;22.10;99.90;;;;;;7348192;19;108771;-90
2022/07/04 08:25:00;;;;;;;2.75;0.50;;;22.10;99.90;;;;;;7345800;19;108056;-88
2022/07/04 08:27:27;;;;;;;3.67;0.55;;;22.20;99.90;;;;;;7347182;19;109452;-90
2022/07/04 08:29:59;;;;;;;3.40;0.75;;;22.30;99.90;;;;;;7348133;19;107307;-90
2022/07/04 08:32:27;;;;;;;4.90;0.60;;;22.40;99.90;;;;;;7348973;19;109583;-88
2022/07/04 08:34:57;;;;;;;2.17;0.65;;;22.50;99.90;;;;;;7347982;19;108266;-91
2022/07/04 08:37:24;;;;;;;2.17;0.70;;;22.50;99.90;;;;;;7347824;19;107853;-88
2022/07/04 08:39:52;;;;;;;2.60;0.40;;;22.60;99.70;;;;;;7354910;19;109016;-91
2022/07/04 08:42:20;;;;;;;4.47;1.08;;;22.70;99.50;;;;;;7345796;19;107286;-90
2022/07/04 08:44:57;;;;;;;3.03;0.80;;;22.70;99.50;;;;;;7345094;19;110919;-91
2022/07/04 08:47:24;;;;;;;4.23;0.60;;;22.70;99.70;;;;;;7349057;19;110998;-89
2022/07/04 08:50:15;;;;;;;156.57;5.18;;;22.70;99.90;;;;;;7349177;19;108252;-89
2022/07/04 08:52:47;;;;;;;5.20;0.65;;;22.80;99.70;;;;;;7341854;19;109900;-89
2022/07/04 09:00:46;;;;;;;2.30;0.60;;;22.90;99.50;;;;;;7348541;19;108022;-90
2022/07/04 09:03:13;;;;;;;4.32;0.82;;;23.00;99.10;;;;;;7353789;19;108442;-89
2022/07/04 09:05:40;;;;;;;4.35;0.80;;;23.10;99.00;;;;;;7346328;19;109332;-89
2022/07/04 09:08:07;;;;;;;2.45;1.00;;;23.10;99.20;;;;;;7348055;19;110585;-90
2022/07/04 09:10:35;;;;;;;4.03;1.13;;;23.00;98.90;;;;;;7344453;19;108440;-90
2022/07/04 09:13:04;;;;;;;4.50;0.75;;;23.10;98.90;;;;;;7345473;19;108293;-91
2022/07/04 09:15:41;;;;;;;5.20;0.80;;;23.20;98.70;;;;;;7346990;19;109880;-89
2022/07/04 09:18:22;;;;;;;5.57;1.00;;;23.20;98.70;;;;;;7348710;19;107598;-89
2022/07/04 09:20:50;;;;;;;5.57;0.75;;;23.30;98.10;;;;;;7347487;19;111682;-89
2022/07/04 09:23:22;;;;;;;7.57;0.73;;;23.30;98.30;;;;;;7347780;19;108095;-88
2022/07/04 09:26:07;;;;;;;2.58;0.82;;;23.40;98.50;;;;;;7350031;19;108777;-90
2022/07/04 09:28:35;;;;;;;4.32;0.70;;;23.40;98.30;;;;;;7345167;19;111119;-88
2022/07/04 09:31:16;;;;;;;2.42;0.70;;;23.50;98.10;;;;;;7346182;19;111560;-91
2022/07/04 09:34:05;;;;;;;5.63;0.60;;;23.50;97.80;;;;;;7349447;19;108582;-90
2022/07/04 09:36:35;;;;;;;3.63;1.00;;;23.60;97.40;;;;;;7348595;19;111722;-89
2022/07/04 09:39:20;;;;;;;3.92;0.60;;;23.60;97.50;;;;;;7347270;19;109664;-89
2022/07/04 09:42:02;;;;;;;6.05;1.45;;;23.70;97.40;;;;;;7345395;19;109064;-89
2022/07/04 09:44:49;;;;;;;7.00;0.80;;;23.80;97.10;;;;;;7346001;19;108410;-91
2022/07/04 09:47:22;;;;;;;6.53;0.68;;;23.80;97.60;;;;;;7348367;19;107191;-91
2022/07/04 09:50:15;;;;;;;6.10;1.02;;;23.90;96.80;;;;;;7352480;19;108851;-91
2022/07/04 09:52:46;;;;;;;4.15;0.85;;;24.00;97.00;;;;;;7345978;19;107454;-89
2022/07/04 09:55:26;;;;;;;4.20;0.88;;;24.00;97.20;;;;;;7343335;19;108752;-91
2022/07/04 09:57:55;;;;;;;6.43;0.90;;;24.10;96.60;;;;;;7342961;19;107877;-91
2022/07/04 10:00:26;;;;;;;5.32;0.63;;;24.10;96.70;;;;;;7341487;19;108318;-89
2022/07/04 10:02:55;;;;;;;3.17;0.80;;;24.20;96.90;;;;;;7344143;19;107990;-90
2022/07/04 10:05:28;;;;;;;4.07;0.65;;;24.20;96.80;;;;;;7345505;19;109518;-89
2022/07/04 10:07:56;;;;;;;3.47;0.70;;;24.30;96.50;;;;;;7342346;19;110770;-90
2022/07/04 10:10:32;;;;;;;2.85;0.90;;;24.30;96.60;;;;;;7342957;19;109001;-91
2022/07/04 10:13:05;;;;;;;2.58;0.80;;;24.50;96.60;;;;;;7349010;19;107979;-90
2022/07/04 10:15:34;;;;;;;6.32;0.60;;;24.60;96.40;;;;;;7342591;19;109497;-89
2022/07/04 10:18:01;;;;;;;3.97;0.57;;;24.70;95.70;;;;;;7343959;19;107287;-92
2022/07/04 10:20:28;;;;;;;2.58;0.70;;;24.80;95.70;;;;;;7342663;19;109124;-91
2022/07/04 10:22:56;;;;;;;3.85;0.60;;;24.90;95.50;;;;;;7342175;19;108602;-89
2022/07/04 10:25:24;;;;;;;2.70;0.70;;;24.90;95.30;;;;;;7344364;19;107996;-90
2022/07/04 10:27:52;;;;;;;3.88;0.80;;;25.00;95.50;;;;;;7342887;19;110617;-91
2022/07/04 10:30:29;;;;;;;1.80;0.65;;;25.10;95.30;;;;;;7340106;19;107974;-90
2022/07/04 10:33:02;;;;;;;2.63;0.60;;;25.10;95.30;;;;;;7347270;19;107852;-91
2022/07/04 10:35:57;;;;;;;1.67;0.57;;;25.00;94.60;;;;;;7341276;19;108066;-89
2022/07/04 10:38:34;;;;;;;7.80;0.90;;;24.90;94.40;;;;;;7342441;19;110068;-91
2022/07/04 10:41:06;;;;;;;11.57;1.10;;;24.80;95.20;;;;;;7342227;19;109005;-91
2022/07/04 10:43:42;;;;;;;3.70;0.77;;;25.00;95.50;;;;;;7342972;19;109314;-91
2022/07/04 10:46:15;;;;;;;5.35;0.88;;;25.10;94.90;;;;;;7340300;19;108307;-91
2022/07/04 10:48:59;;;;;;;5.00;0.77;;;25.10;94.90;;;;;;7338974;19;108287;-90
2022/07/04 10:51:41;;;;;;;3.05;0.70;;;25.30;94.90;;;;;;7342602;19;108694;-91
2022/07/04 10:54:19;;;;;;;3.42;0.60;;;25.30;92.80;;;;;;7341105;19;108416;-91
2022/07/04 10:56:56;;;;;;;5.72;0.47;;;25.30;94.50;;;;;;7338440;19;107656;-90
2022/07/04 10:59:28;;;;;;;5.50;0.70;;;25.30;94.00;;;;;;7339266;19;107622;-89
2022/07/04 11:02:09;;;;;;;3.65;1.15;;;25.10;92.90;;;;;;7339256;19;109559;-89
2022/07/04 11:04:56;;;;;;;5.05;0.98;;;25.00;93.90;;;;;;7341725;19;109190;-90
2022/07/04 11:07:44;;;;;;;3.90;0.88;;;25.10;94.20;;;;;;7341356;19;108090;-91
2022/07/04 11:10:21;;;;;;;2.53;0.63;;;25.30;93.80;;;;;;7338381;19;108489;-91
2022/07/04 11:12:55;;;;;;;2.83;0.70;;;25.40;94.50;;;;;;7340454;19;111532;-92
2022/07/04 11:15:32;;;;;;;5.53;0.93;;;25.60;94.10;;;;;;7341559;19;107943;-90
2022/07/04 11:18:03;;;;;;;;;;;25.70;93.50;;;;;;7342991;19;107820;-92
2022/07/04 11:20:33;;;;;;;5.30;0.70;;;25.60;93.40;;;;;;7351445;19;107700;-89
2022/07/04 11:23:07;;;;;;;3.05;0.70;;;25.70;93.90;;;;;;7339521;19;111041;-90
2022/07/04 11:25:35;;;;;;;3.55;0.60;;;25.90;93.80;;;;;;7339440;19;111906;-90
2022/07/04 11:28:25;;;;;;;1.88;0.50;;;26.10;93.60;;;;;;7341613;19;108647;-89
2022/07/04 11:31:13;;;;;;;2.30;0.75;;;26.20;93.00;;;;;;7341402;19;109873;-90
2022/07/04 11:33:41;;;;;;;2.35;0.70;;;26.10;92.90;;;;;;7342025;19;107828;-92
2022/07/04 11:36:10;;;;;;;10.88;0.98;;;26.10;92.70;;;;;;7346742;19;110589;-92
2022/07/04 11:39:10;;;;;;;3.10;0.60;;;26.10;92.80;;;;;;7348006;19;108161;-90
2022/07/04 11:47:31;;;;;;;2.53;0.65;;;25.80;92.40;;;;;;7348010;19;109266;-90
2022/07/04 11:49:59;;;;;;;3.35;0.80;;;25.70;92.20;;;;;;7345310;19;108622;-89
2022/07/04 11:52:29;;;;;;;3.28;0.80;;;25.70;92.60;;;;;;7349608;19;108249;-91
2022/07/04 11:55:17;;;;;;;4.00;0.93;;;25.60;92.80;;;;;;7348285;19;111948;-90
2022/07/04 11:57:50;;;;;;;4.90;0.70;;;25.70;93.60;;;;;;7349775;19;110357;-91
2022/07/04 12:00:25;;;;;;;2.53;0.90;;;25.80;93.70;;;;;;7349646;19;107112;-91
2022/07/04 12:02:52;;;;;;;1.75;0.77;;;26.00;91.50;;;;;;7349118;19;108964;-90
2022/07/04 12:05:20;;;;;;;2.55;0.77;;;26.00;92.20;;;;;;7349413;19;108113;-89
2022/07/04 12:07:48;;;;;;;2.67;0.80;;;26.00;92.30;;;;;;7352302;19;108306;-90
2022/07/04 12:10:36;;;;;;;2.65;0.80;;;26.00;91.60;;;;;;7344063;19;110186;-91
2022/07/04 12:13:10;;;;;;;5.63;1.00;;;25.90;91.10;;;;;;7346610;19;109712;-91
2022/07/04 12:15:41;;;;;;;2.78;0.90;;;26.10;92.10;;;;;;7350777;19;109044;-91
2022/07/04 12:18:19;;;;;;;6.13;1.08;;;26.30;91.60;;;;;;7347793;19;108263;-90
2022/07/04 12:20:49;;;;;;;2.95;0.93;;;26.40;92.10;;;;;;7346801;19;108326;-90
2022/07/04 12:23:18;;;;;;;3.50;0.70;;;26.60;92.20;;;;;;7345889;19;110184;-90
2022/07/04 12:25:51;;;;;;;4.63;1.00;;;26.80;92.20;;;;;;7348086;19;108218;-90
2022/07/04 12:28:22;;;;;;;5.47;1.15;;;27.00;92.10;;;;;;7347049;19;109765;-91
2022/07/04 12:30:51;;;;;;;3.67;0.88;;;27.20;92.00;;;;;;7353341;19;108326;-91
2022/07/04 12:33:23;;;;;;;5.78;1.00;;;27.30;91.80;;;;;;7349297;19;108271;-91
2022/07/04 12:35:52;;;;;;;2.40;0.80;;;27.40;91.80;;;;;;7345463;19;107386;-91
2022/07/04 12:38:22;;;;;;;3.90;0.80;;;27.40;90.30;;;;;;7348880;19;108034;-92
2022/07/04 12:40:57;;;;;;;3.60;0.90;;;27.40;90.80;;;;;;7345225;19;107900;-91
2022/07/04 12:43:50;;;;;;;4.93;1.10;;;27.20;87.80;;;;;;7346564;19;108778;-90
2022/07/04 12:46:34;;;;;;;5.85;1.13;;;27.10;90.60;;;;;;7345594;19;110154;-90
2022/07/04 12:49:21;;;;;;;5.57;1.25;;;27.00;90.40;;;;;;7346958;19;110023;-90
2022/07/04 12:51:48;;;;;;;4.95;1.13;;;27.10;90.90;;;;;;7350634;19;108412;-90
2022/07/04 12:54:16;;;;;;;6.15;1.10;;;27.20;91.10;;;;;;7345110;19;108232;-89
2022/07/04 12:56:46;;;;;;;3.38;0.90;;;27.50;91.50;;;;;;7343878;19;109400;-91
2022/07/04 12:59:16;;;;;;;3.38;1.13;;;27.70;90.80;;;;;;7346500;19;108265;-91
2022/07/04 13:01:44;;;;;;;3.13;0.77;;;27.80;90.70;;;;;;7344623;19;110071;-90
2022/07/04 13:04:12;;;;;;;2.65;0.85;;;27.90;89.00;;;;;;7346436;19;108875;-91
2022/07/04 13:06:40;;;;;;;5.38;0.90;;;28.10;88.10;;;;;;7346797;19;108576;-90